Time;durP1;ratioP1;P1;durP2;ratioP2;P2;SDS_P1;SDS_P2;PMS_P1;PMS_P2;Temp;Humidity;BMP_temperature;BMP_pressure;BME280_temperature;BME280_humidity;BME280_pressure;Samples;Min_cycle;Max_cycle;Signal;HPM_P1;HPM_P2
2022/05/05 00:00:54;;;;;;;;;16.00;13.00;;;;;17.25;49.16;101926.06;2393380;28;45454;-85
2022/05/05 00:02:05;;;;;;;;;13.00;12.25;;;;;17.25;48.68;101935.81;2400742;28;45495;-84
2022/05/05 00:03:15;;;;;;;;;14.00;13.00;;;;;17.20;48.95;101928.91;2402856;28;45374;-85
2022/05/05 00:04:25;;;;;;;;;10.50;10.50;;;;;17.21;49.06;101932.44;2402793;28;45420;-85
2022/05/05 00:05:35;;;;;;;;;13.75;12.00;;;;;17.19;49.15;101928.97;2402149;28;44653;-84
2022/05/05 00:06:46;;;;;;;;;14.50;11.25;;;;;17.19;49.45;101929.84;2401598;28;46123;-85
2022/05/05 00:07:56;;;;;;;;;12.25;11.75;;;;;17.17;49.28;101931.69;2403014;28;45217;-85
2022/05/05 00:09:07;;;;;;;;;14.75;14.00;;;;;17.17;49.48;101933.47;2392414;28;47954;-85
2022/05/05 00:14:44;;;;;;;;;16.75;14.00;;;;;17.16;49.23;101934.44;2402659;28;45307;-84
2022/05/05 00:15:54;;;;;;;;;14.00;13.00;;;;;17.15;49.38;101933.56;2401852;28;45231;-84
2022/05/05 00:17:07;;;;;;;;;14.25;13.00;;;;;17.15;49.46;101941.53;2401685;28;46134;-83
2022/05/05 00:18:18;;;;;;;;;12.75;11.25;;;;;17.16;49.49;101931.78;2400165;28;45183;-82
2022/05/05 00:19:31;;;;;;;;;14.00;11.50;;;;;17.16;49.37;101929.97;2398056;28;45491;-83
2022/05/05 00:20:42;;;;;;;;;16.00;12.50;;;;;17.17;49.51;101933.47;2385832;28;45318;-82
2022/05/05 00:21:52;;;;;;;;;14.50;11.75;;;;;17.17;49.50;101933.47;2385577;28;47040;-82
2022/05/05 00:23:03;;;;;;;;;15.50;12.75;;;;;17.17;49.49;101942.31;2380060;28;44693;-82
2022/05/05 00:24:16;;;;;;;;;14.25;12.50;;;;;17.17;49.57;101936.13;2380006;28;48090;-82
2022/05/05 00:25:26;;;;;;;;;18.75;13.00;;;;;17.18;49.51;101943.19;2385261;28;45308;-82
2022/05/05 00:26:37;;;;;;;;;14.75;13.75;;;;;17.18;49.27;101940.53;2392475;28;45589;-82
2022/05/05 00:27:47;;;;;;;;;13.00;11.00;;;;;17.19;49.37;101939.59;2400923;28;45231;-82
2022/05/05 00:28:58;;;;;;;;;17.00;12.75;;;;;17.19;49.25;101939.59;2402535;28;45446;-82
2022/05/05 00:30:09;;;;;;;;;13.75;13.75;;;;;17.18;49.26;101941.41;2390470;28;45927;-82
2022/05/05 00:31:19;;;;;;;;;14.25;11.00;;;;;17.17;49.51;101937.00;2386693;28;47334;-82
2022/05/05 00:32:29;;;;;;;;;11.75;10.50;;;;;17.16;49.44;101942.41;2384376;28;45506;-82
2022/05/05 00:33:40;;;;;;;;;12.25;11.50;;;;;17.16;49.89;101947.72;2388737;28;47979;-82
2022/05/05 00:34:50;;;;;;;;;16.75;12.75;;;;;17.14;49.18;101945.06;2386054;28;45311;-81
2022/05/05 00:36:00;;;;;;;;;15.00;12.50;;;;;17.11;49.37;101942.56;2392417;28;46944;-81
2022/05/05 00:37:11;;;;;;;;;12.25;11.50;;;;;17.07;49.23;101944.47;2378380;28;45280;-81
2022/05/05 00:38:21;;;;;;;;;15.75;13.00;;;;;17.04;49.46;101941.09;2385875;28;45622;-82
2022/05/05 00:39:31;;;;;;;;;14.50;14.50;;;;;17.04;49.29;101944.59;2395532;28;45441;-82
2022/05/05 00:40:43;;;;;;;;;14.00;11.50;;;;;17.02;49.31;101940.25;2398514;28;47173;-83
2022/05/05 00:41:53;;;;;;;;;12.00;11.50;;;;;16.97;49.73;101940.47;2399297;28;45436;-83
2022/05/05 00:43:04;;;;;;;;;14.25;11.75;;;;;16.94;49.85;101940.59;2399704;28;46392;-82
2022/05/05 00:44:15;;;;;;;;;18.00;13.00;;;;;16.92;49.60;101945.97;2401600;28;44696;-82
2022/05/05 00:45:26;;;;;;;;;11.25;11.25;;;;;16.89;49.49;101942.59;2398536;28;45391;-84
2022/05/05 00:46:36;;;;;;;;;13.25;11.25;;;;;16.88;49.89;101939.06;2402732;28;45232;-84
2022/05/05 00:47:47;;;;;;;;;15.00;12.00;;;;;16.81;49.58;101929.59;2402514;28;45598;-83
2022/05/05 00:48:58;;;;;;;;;15.50;13.00;;;;;16.81;49.23;101942.88;2394116;28;44882;-83
2022/05/05 00:50:10;;;;;;;;;12.50;12.50;;;;;16.75;49.71;101936.88;2402705;28;45444;-83
2022/05/05 00:51:21;;;;;;;;;11.25;10.50;;;;;16.74;49.87;101940.47;2397244;28;45558;-83
2022/05/05 00:52:31;;;;;;;;;13.50;12.75;;;;;16.77;49.58;101939.47;2399209;28;46355;-84
2022/05/05 00:53:42;;;;;;;;;14.75;12.25;;;;;16.74;49.92;101936.97;2402237;28;44743;-83
2022/05/05 00:54:55;;;;;;;;;13.50;13.50;;;;;16.75;50.27;101933.38;2400841;28;46168;-80
2022/05/05 00:56:13;;;;;;;;;14.75;12.25;;;;;16.72;50.01;101936.13;2400959;28;45630;-81
2022/05/05 00:57:24;;;;;;;;;14.25;12.50;;;;;16.68;49.79;101938.06;2393261;28;45713;-82
2022/05/05 00:58:35;;;;;;;;;16.00;14.75;;;;;16.65;50.10;101936.41;2402687;28;44592;-82
2022/05/05 00:59:46;;;;;;;;;10.25;10.25;;;;;16.60;50.04;101938.38;2394965;28;47279;-83
2022/05/05 01:01:06;;;;;;;;;14.75;13.50;;;;;16.61;50.28;101944.53;2397906;28;44647;-83
2022/05/05 01:02:17;;;;;;;;;18.00;13.00;;;;;16.54;49.97;101930.66;2393816;28;45491;-83
2022/05/05 01:03:27;;;;;;;;;8.50;7.00;;;;;16.51;50.19;101942.25;2384946;28;45256;-83
2022/05/05 01:04:38;;;;;;;;;11.75;11.75;;;;;16.48;50.15;101946.81;2389681;28;45429;-83
2022/05/05 01:05:48;;;;;;;;;14.25;11.50;;;;;16.47;50.18;101945.09;2395322;28;44755;-81
2022/05/05 01:07:02;;;;;;;;;14.25;10.50;;;;;16.46;50.43;101946.00;2394590;28;46259;-83
2022/05/05 01:08:13;;;;;;;;;12.50;11.25;;;;;16.46;50.43;101946.00;2394766;28;44687;-83
2022/05/05 01:09:23;;;;;;;;;10.50;9.50;;;;;16.46;50.26;101943.34;2394738;28;46493;-84
2022/05/05 01:10:33;;;;;;;;;14.00;13.00;;;;;16.41;50.54;101940.88;2398678;28;45403;-83
2022/05/05 01:11:44;;;;;;;;;13.75;11.00;;;;;16.39;50.00;101943.59;2398528;28;45331;-83
2022/05/05 01:12:54;;;;;;;;;12.75;11.25;;;;;16.38;49.97;101941.00;2397516;28;45382;-84
2022/05/05 01:14:05;;;;;;;;;13.25;11.50;;;;;16.34;50.01;101945.56;2403983;28;46268;-83
2022/05/05 01:15:15;;;;;;;;;11.50;9.50;;;;;16.30;49.93;101944.81;2398061;28;45533;-84
2022/05/05 01:16:26;;;;;;;;;14.75;11.50;;;;;16.28;50.55;101945.78;2393790;28;46461;-83
2022/05/05 01:17:37;;;;;;;;;12.75;10.00;;;;;16.26;50.16;101939.66;2394642;28;45210;-84
2022/05/05 01:18:47;;;;;;;;;11.25;10.50;;;;;16.23;50.68;101940.66;2399614;28;45249;-84
2022/05/05 01:20:11;;;;;;;;;11.75;10.25;;;;;16.22;50.00;101946.03;2404168;28;44694;-83
2022/05/05 01:21:22;;;;;;;;;8.50;8.00;;;;;16.19;50.57;101950.53;2396969;28;45750;-84
2022/05/05 01:22:33;;;;;;;;;11.25;10.25;;;;;16.19;50.37;101947.88;2400656;28;45167;-83
2022/05/05 01:23:43;;;;;;;;;14.00;12.25;;;;;16.18;50.72;101947.91;2394622;28;45474;-83
2022/05/05 01:29:23;;;;;;;;;11.25;11.25;;;;;16.18;50.59;101945.25;2394520;28;45675;-83
2022/05/05 01:30:34;;;;;;;;;14.25;12.25;;;;;16.18;50.78;101951.44;2394083;28;44625;-83
2022/05/05 01:31:44;;;;;;;;;12.75;10.00;;;;;16.19;50.67;101950.53;2394338;28;45385;-84
2022/05/05 01:32:55;;;;;;;;;13.50;10.50;;;;;16.20;50.67;101949.59;2395023;28;45235;-84
2022/05/05 01:34:05;;;;;;;;;14.00;9.75;;;;;16.20;50.33;101946.06;2413361;28;45139;-82
2022/05/05 01:35:15;;;;;;;;;10.25;9.00;;;;;16.21;50.61;101955.75;2405070;28;44770;-81
2022/05/05 01:36:26;;;;;;;;;13.00;9.75;;;;;16.20;50.75;101954.91;2402593;28;45671;-81
2022/05/05 01:37:36;;;;;;;;;9.00;9.00;;;;;16.17;50.54;101952.34;2394073;28;45373;-80
2022/05/05 01:38:47;;;;;;;;;9.50;9.50;;;;;16.17;50.67;101952.34;2393710;28;46364;-81
2022/05/05 01:39:57;;;;;;;;;10.00;8.75;;;;;16.17;50.57;101949.69;2394102;28;45262;-81
2022/05/05 01:41:12;;;;;;;;;12.00;8.25;;;;;16.15;50.72;101946.25;2394499;28;46216;-80
2022/05/05 01:42:22;;;;;;;;;14.00;10.25;;;;;16.13;50.54;101948.09;2394958;28;45291;-81
2022/05/05 01:43:34;;;;;;;;;9.25;9.25;;;;;16.12;50.84;101949.03;2394280;28;46246;-81
2022/05/05 01:44:44;;;;;;;;;8.75;6.25;;;;;16.08;50.76;101947.41;2395475;28;45220;-81
2022/05/05 01:45:54;;;;;;;;;11.25;9.25;;;;;16.06;50.96;101943.94;2392910;28;47564;-81
2022/05/05 01:47:05;;;;;;;;;10.75;10.75;;;;;16.05;50.82;101947.53;2395921;28;45237;-81
2022/05/05 01:48:15;;;;;;;;;6.50;6.50;;;;;16.06;50.92;101947.47;2394799;28;46183;-81
2022/05/05 01:49:26;;;;;;;;;9.75;6.25;;;;;16.04;50.93;101943.09;2395838;28;45374;-81
2022/05/05 01:50:37;;;;;;;;;10.00;8.50;;;;;16.05;50.93;101945.72;2397425;28;45840;-81
2022/05/05 01:51:48;;;;;;;;;10.50;9.00;;;;;16.07;51.01;101945.69;2413548;28;45228;-81
2022/05/05 01:53:00;;;;;;;;;11.75;9.25;;;;;16.08;51.33;101944.75;2394855;28;46622;-81
2022/05/05 01:54:10;;;;;;;;;9.25;8.00;;;;;16.10;50.94;101942.06;2394407;28;45233;-80
2022/05/05 01:55:21;;;;;;;;;11.75;11.25;;;;;16.12;50.78;101943.72;2398972;28;46557;-80
2022/05/05 01:56:31;;;;;;;;;11.00;9.00;;;;;16.13;50.87;101949.88;2402933;28;45274;-80
2022/05/05 01:57:42;;;;;;;;;10.00;7.75;;;;;16.12;51.04;101946.38;2399920;28;46092;-80
2022/05/05 01:58:52;;;;;;;;;10.00;8.75;;;;;16.11;50.83;101949.06;2403830;28;44811;-80
2022/05/05 02:00:03;;;;;;;;;9.75;8.75;;;;;16.08;50.87;101953.56;2399909;28;45329;-81
2022/05/05 02:01:14;;;;;;;;;9.00;8.50;;;;;16.07;50.78;101943.03;2401324;28;45255;-81
2022/05/05 02:02:24;;;;;;;;;11.50;10.25;;;;;16.06;51.07;101951.91;2390541;28;47469;-82
2022/05/05 02:03:35;;;;;;;;;9.25;9.25;;;;;16.01;51.31;101959.13;2393960;28;44692;-83
2022/05/05 02:04:45;;;;;;;;;9.00;9.00;;;;;15.95;51.01;101955.75;2393964;28;45352;-83
2022/05/05 02:05:55;;;;;;;;;11.00;10.75;;;;;15.93;51.05;101954.97;2395631;28;45169;-82
2022/05/05 02:07:06;;;;;;;;;8.25;8.25;;;;;15.93;50.92;101949.66;2385991;28;47100;-82
2022/05/05 02:08:16;;;;;;;;;9.50;6.50;;;;;15.94;51.10;101959.34;2386316;28;45284;-83
2022/05/05 02:09:26;;;;;;;;;9.25;7.75;;;;;15.94;51.21;101954.06;2395570;28;47870;-82
2022/05/05 02:10:37;;;;;;;;;11.50;8.00;;;;;15.91;51.31;101956.81;2401198;28;44722;-83
2022/05/05 02:11:48;;;;;;;;;11.50;9.25;;;;;15.92;50.99;101958.56;2401988;28;45833;-82
2022/05/05 02:12:58;;;;;;;;;9.25;8.25;;;;;15.90;51.13;101957.72;2401432;28;45429;-84
2022/05/05 02:14:09;;;;;;;;;9.50;8.00;;;;;15.91;51.21;101963.88;2402664;28;46055;-84
2022/05/05 02:15:19;;;;;;;;;8.25;6.75;;;;;15.90;51.15;101963.00;2402408;28;45527;-84
2022/05/05 02:16:29;;;;;;;;;12.75;10.25;;;;;15.89;50.88;101963.97;2397887;28;46186;-84
2022/05/05 02:17:42;;;;;;;;;11.25;8.25;;;;;15.87;51.12;101963.16;2388923;28;45287;-84
2022/05/05 02:18:52;;;;;;;;;8.50;7.00;;;;;15.86;51.14;101962.28;2387227;28;45433;-84
2022/05/05 02:20:05;;;;;;;;;10.25;9.00;;;;;15.83;51.03;101962.38;2393672;28;46255;-84
2022/05/05 02:21:16;;;;;;;;;10.25;10.25;;;;;15.80;51.19;101961.63;2393656;28;46111;-84
2022/05/05 02:22:28;;;;;;;;;9.25;8.25;;;;;15.78;51.25;101958.19;2392872;28;45481;-84
2022/05/05 02:23:38;;;;;;;;;15.75;13.75;;;;;15.75;51.15;101960.00;2385324;28;48054;-84
2022/05/05 02:24:49;;;;;;;;;10.50;10.00;;;;;15.73;51.32;101956.53;2392304;28;45319;-84
2022/05/05 02:25:59;;;;;;;;;10.50;10.50;;;;;15.73;51.42;101956.53;2386814;28;47923;-85
2022/05/05 02:27:10;;;;;;;;;10.00;9.00;;;;;15.72;51.31;101953.97;2394886;28;45315;-82
2022/05/05 02:28:20;;;;;;;;;9.00;8.50;;;;;15.70;51.48;101956.66;2391788;28;47462;-84
2022/05/05 02:29:31;;;;;;;;;8.50;8.25;;;;;15.68;51.49;101957.66;2396230;28;45170;-85
2022/05/05 02:30:41;;;;;;;;;10.25;10.25;;;;;15.68;51.56;101955.84;2393019;28;46964;-83
2022/05/05 02:31:51;;;;;;;;;12.00;9.75;;;;;15.66;51.40;101960.31;2396324;28;44661;-83
2022/05/05 02:33:02;;;;;;;;;11.75;9.50;;;;;15.64;51.69;101947.16;2393831;28;47109;-83
2022/05/05 02:34:12;;;;;;;;;11.50;9.25;;;;;15.64;51.54;101954.22;2398813;28;45195;-84
2022/05/05 02:35:24;;;;;;;;;12.25;11.00;;;;;15.62;51.60;101951.63;2393989;28;45368;-86
2022/05/05 02:39:33;;;;;;;;;12.75;12.50;;;;;15.61;52.25;101951.66;2403622;28;45315;-86
2022/05/05 02:40:44;;;;;;;;;16.00;11.25;;;;;15.59;51.74;101942.91;2394319;28;45237;-86
2022/05/05 02:41:54;;;;;;;;;10.00;8.50;;;;;15.58;52.15;101941.19;2386748;28;44601;-86
2022/05/05 02:43:06;;;;;;;;;10.75;10.75;;;;;15.57;52.09;101942.09;2387233;28;45417;-85
2022/05/05 02:44:16;;;;;;;;;10.75;9.00;;;;;15.55;52.41;101944.81;2394148;28;45191;-86
2022/05/05 02:45:27;;;;;;;;;13.00;11.50;;;;;15.57;52.21;101944.75;2393827;28;46704;-85
2022/05/05 02:46:38;;;;;;;;;14.00;12.25;;;;;15.57;52.25;101944.75;2393046;28;44633;-85
2022/05/05 02:47:49;;;;;;;;;10.50;9.50;;;;;15.58;52.43;101949.16;2390583;28;46525;-85
2022/05/05 02:49:00;;;;;;;;;17.25;10.25;;;;;15.59;51.98;101942.91;2384004;28;44747;-84
2022/05/05 02:50:10;;;;;;;;;11.75;9.75;;;;;15.61;52.50;101954.31;2387066;28;48292;-85
2022/05/05 02:51:20;;;;;;;;;16.25;12.25;;;;;15.60;52.32;101945.53;2392341;28;45246;-83
2022/05/05 02:52:31;;;;;;;;;16.25;13.25;;;;;15.58;52.66;101944.69;2395626;28;46628;-83
2022/05/05 02:55:10;;;;;;;;;13.25;11.25;;;;;15.59;52.76;101957.03;2403315;28;45864;-84
2022/05/05 02:56:21;;;;;;;;;12.25;11.75;;;;;15.57;52.51;101950.06;2403329;28;45367;-83
2022/05/05 02:57:31;;;;;;;;;11.75;11.25;;;;;15.57;52.48;101944.75;2401680;28;45756;-83
2022/05/05 02:58:42;;;;;;;;;10.75;10.75;;;;;15.57;52.40;101950.06;2395173;28;45299;-83
2022/05/05 02:59:54;;;;;;;;;15.25;12.50;;;;;15.57;52.63;101947.41;2397454;28;46223;-84
2022/05/05 03:01:04;;;;;;;;;14.25;11.75;;;;;15.55;52.61;101947.47;2402455;28;45231;-84
2022/05/05 03:02:15;;;;;;;;;15.25;12.00;;;;;15.55;52.89;101951.91;2387079;28;47129;-84
2022/05/05 03:03:25;;;;;;;;;10.25;10.25;;;;;15.53;52.85;101950.16;2393472;28;45362;-84
2022/05/05 03:04:35;;;;;;;;;13.50;12.75;;;;;15.53;52.58;101944.84;2383835;28;47174;-84
2022/05/05 03:05:46;;;;;;;;;15.25;14.00;;;;;15.53;53.27;101955.44;2394987;28;45269;-85
2022/05/05 03:06:57;;;;;;;;;13.00;12.00;;;;;15.46;53.34;101943.34;2402598;28;46581;-84
2022/05/05 03:08:07;;;;;;;;;14.50;13.00;;;;;15.46;53.00;101948.63;2395185;28;45251;-84
2022/05/05 03:09:19;;;;;;;;;16.25;11.75;;;;;15.43;53.36;101943.47;2383634;28;47089;-87
2022/05/05 03:10:29;;;;;;;;;17.75;14.00;;;;;15.45;53.29;101944.28;2389742;28;45375;-86
2022/05/05 03:11:39;;;;;;;;;12.75;12.75;;;;;15.42;53.42;101952.31;2386250;28;47016;-86
2022/05/05 03:12:50;;;;;;;;;16.25;11.50;;;;;15.41;53.43;101948.78;2389934;28;46625;-86
2022/05/05 03:14:00;;;;;;;;;11.75;11.00;;;;;15.40;53.51;101951.50;2400957;28;47073;-86
2022/05/05 03:15:10;;;;;;;;;19.50;12.25;;;;;15.38;53.84;101953.34;2390156;28;45180;-87
2022/05/05 03:16:21;;;;;;;;;5.25;2.50;;;;;15.35;53.91;101950.78;2386233;28;46251;-87
2022/05/05 03:17:31;;;;;;;;;18.00;15.25;;;;;15.32;54.01;101942.94;2386052;28;45292;-87
2022/05/05 03:18:43;;;;;;;;;16.75;11.25;;;;;15.29;54.00;101950.09;2395883;28;45500;-83
2022/05/05 03:19:53;;;;;;;;;14.25;11.75;;;;;15.28;53.98;101947.50;2397676;28;45205;-84
2022/05/05 03:21:04;;;;;;;;;9.50;7.75;;;;;15.25;53.93;101948.47;2384469;28;46884;-84
2022/05/05 03:22:14;;;;;;;;;16.25;13.00;;;;;15.25;53.96;101955.53;2378639;28;44771;-84
2022/05/05 03:23:25;;;;;;;;;10.25;10.25;;;;;15.25;54.32;101948.47;2386404;28;46646;-83
2022/05/05 03:24:35;;;;;;;;;19.25;11.00;;;;;15.25;54.44;101947.59;2390252;28;45221;-84
2022/05/05 03:25:45;;;;;;;;;20.75;12.50;;;;;15.25;54.21;101944.94;2395425;28;45235;-84
2022/05/05 03:26:56;;;;;;;;;14.50;11.50;;;;;15.24;54.49;101946.72;2403116;28;45139;-83
2022/05/05 03:28:07;;;;;;;;;13.00;11.50;;;;;15.27;54.31;101945.75;2388113;28;47267;-83
2022/05/05 03:29:17;;;;;;;;;17.00;11.25;;;;;15.25;54.49;101937.00;2401739;28;45243;-84
2022/05/05 03:30:28;;;;;;;;;16.50;12.25;;;;;15.28;54.33;101944.84;2400133;28;46183;-83
2022/05/05 03:31:39;;;;;;;;;12.75;11.25;;;;;15.28;54.30;101944.84;2383471;28;45433;-83
2022/05/05 03:32:49;;;;;;;;;13.00;12.00;;;;;15.27;54.58;101949.28;2389555;28;45368;-84
2022/05/05 03:34:00;;;;;;;;;13.00;11.25;;;;;15.26;54.60;101946.69;2407913;28;45435;-84
2022/05/05 03:35:10;;;;;;;;;12.00;11.25;;;;;15.27;54.52;101949.28;2402081;28;46090;-84
2022/05/05 03:36:20;;;;;;;;;13.00;11.75;;;;;15.26;54.71;101950.19;2393018;28;44830;-85
2022/05/05 03:37:31;;;;;;;;;13.00;11.75;;;;;15.25;54.40;101950.25;2395619;28;45406;-84
2022/05/05 03:38:42;;;;;;;;;16.75;10.50;;;;;15.24;54.73;101940.56;2392914;28;45357;-86
2022/05/05 03:39:52;;;;;;;;;13.75;11.25;;;;;15.25;54.64;101945.81;2395706;28;45501;-85
2022/05/05 03:41:02;;;;;;;;;11.00;10.50;;;;;15.24;54.73;101948.50;2399593;28;45267;-84
2022/05/05 03:42:13;;;;;;;;;14.50;11.50;;;;;15.24;54.34;101952.03;2383376;28;47055;-84
2022/05/05 03:43:24;;;;;;;;;10.00;9.00;;;;;15.25;54.73;101951.13;2379515;28;46749;-85
2022/05/05 03:44:34;;;;;;;;;16.50;12.00;;;;;15.24;54.86;101956.44;2391592;28;45462;-83
2022/05/05 03:45:44;;;;;;;;;18.50;11.50;;;;;15.22;54.78;101950.34;2391587;28;45286;-83
2022/05/05 03:46:55;;;;;;;;;14.75;12.75;;;;;15.23;54.71;101954.72;2395520;28;45513;-83
2022/05/05 03:48:05;;;;;;;;;13.50;12.50;;;;;15.23;54.71;101958.25;2401616;28;45172;-85
2022/05/05 03:49:16;;;;;;;;;13.50;12.25;;;;;15.24;54.88;101962.59;2392734;28;48598;-80
2022/05/05 03:50:26;;;;;;;;;12.00;9.75;;;;;15.23;54.83;101955.59;2384411;28;45256;-80
2022/05/05 03:51:37;;;;;;;;;14.50;10.75;;;;;15.23;55.07;101958.25;2380341;28;47583;-80
2022/05/05 03:52:47;;;;;;;;;13.00;11.50;;;;;15.23;54.87;101960.03;2393283;28;45309;-82
2022/05/05 03:53:57;;;;;;;;;14.00;11.00;;;;;15.22;54.91;101960.94;2384205;28;47225;-82
2022/05/05 03:55:08;;;;;;;;;14.25;11.00;;;;;15.22;54.92;101964.44;2389107;28;45413;-81
2022/05/05 03:56:19;;;;;;;;;14.25;11.50;;;;;15.24;54.99;101959.09;2393451;28;47680;-81
2022/05/05 03:57:29;;;;;;;;;17.50;12.50;;;;;15.24;55.25;101957.31;2394566;28;47066;-83
2022/05/05 03:58:39;;;;;;;;;12.50;11.00;;;;;15.23;55.03;101960.91;2386945;28;47014;-82
2022/05/05 03:59:50;;;;;;;;;16.75;11.50;;;;;15.24;54.95;101965.25;2376452;28;45423;-82
2022/05/05 04:01:00;;;;;;;;;17.00;11.75;;;;;15.25;54.91;101967.00;2388546;28;45394;-82
2022/05/05 04:02:11;;;;;;;;;17.75;12.25;;;;;15.24;55.26;101957.31;2392170;28;44718;-82
2022/05/05 04:03:34;;;;;;;;;11.50;11.50;;;;;15.24;55.21;101967.03;2376848;28;47370;-82
2022/05/05 04:04:44;;;;;;;;;14.50;13.25;;;;;15.24;55.01;101954.66;2389107;28;45229;-81
2022/05/05 04:05:55;;;;;;;;;16.50;12.50;;;;;15.25;55.17;101961.72;2401991;28;46387;-81
2022/05/05 04:07:05;;;;;;;;;12.50;11.75;;;;;15.27;54.92;101959.88;2393072;28;44643;-81
2022/05/05 04:08:15;;;;;;;;;11.00;11.00;;;;;15.27;54.75;101959.88;2390671;28;48349;-81
2022/05/05 04:09:26;;;;;;;;;15.00;11.75;;;;;15.29;54.97;101965.09;2390830;28;44695;-80
2022/05/05 04:10:36;;;;;;;;;11.00;11.00;;;;;15.31;55.11;101955.31;2394549;28;45356;-82
2022/05/05 04:11:47;;;;;;;;;15.25;11.75;;;;;15.30;55.17;101959.78;2383804;28;44781;-82
2022/05/05 04:12:57;;;;;;;;;11.75;11.75;;;;;15.29;55.19;101958.03;2376477;28;47076;-82
2022/05/05 04:14:08;;;;;;;;;16.00;16.00;;;;;15.32;54.90;101966.78;2391681;28;45994;-82
2022/05/05 04:15:18;;;;;;;;;11.00;10.25;;;;;15.31;55.03;101960.63;2396733;28;46067;-81
2022/05/05 04:16:31;;;;;;;;;17.25;15.25;;;;;15.30;54.90;101958.91;2387772;28;45397;-81
2022/05/05 04:17:42;;;;;;;;;18.00;12.25;;;;;15.32;54.95;101965.00;2388199;28;46107;-81
2022/05/05 04:18:52;;;;;;;;;13.50;13.50;;;;;15.33;55.20;101963.22;2392446;28;44796;-82
2022/05/05 04:20:03;;;;;;;;;19.00;14.00;;;;;15.30;55.08;101958.91;2387595;28;45372;-81
2022/05/05 04:21:13;;;;;;;;;16.75;14.00;;;;;15.33;55.07;101960.59;2387097;28;45426;-84
2022/05/05 04:22:23;;;;;;;;;18.50;17.25;;;;;15.32;54.99;101964.13;2392744;28;47235;-85
2022/05/05 04:23:34;;;;;;;;;12.50;10.50;;;;;15.33;54.95;101968.53;2400285;28;45231;-86
2022/05/05 04:24:44;;;;;;;;;13.00;11.25;;;;;15.33;54.95;101968.53;2401734;28;46576;-82
2022/05/05 04:25:55;;;;;;;;;11.50;11.25;;;;;15.32;54.83;101965.00;2402584;28;45178;-83
2022/05/05 04:27:06;;;;;;;;;11.75;11.75;;;;;15.31;54.89;101965.91;2402818;28;45234;-83
2022/05/05 04:28:17;;;;;;;;;14.25;11.50;;;;;15.30;54.86;101973.03;2394529;28;44742;-82
2022/05/05 04:29:27;;;;;;;;;13.50;11.00;;;;;15.30;54.70;101972.16;2390122;28;47158;-81
2022/05/05 04:30:39;;;;;;;;;15.25;12.50;;;;;15.29;54.86;101970.41;2388062;28;45516;-84
2022/05/05 04:31:49;;;;;;;;;16.25;13.25;;;;;15.27;54.80;101981.06;2383129;28;46386;-82
2022/05/05 04:33:00;;;;;;;;;17.00;15.25;;;;;15.24;55.03;101973.19;2393619;28;45355;-82
2022/05/05 04:34:10;;;;;;;;;12.00;11.25;;;;;15.25;55.11;101972.31;2405400;28;45305;-82
2022/05/05 04:35:21;;;;;;;;;12.50;10.50;;;;;15.24;55.01;101970.56;2388707;28;44764;-83
2022/05/05 04:36:35;;;;;;;;;11.50;10.25;;;;;15.25;55.23;101974.94;2394658;28;47597;-83
2022/05/05 04:37:46;;;;;;;;;13.50;11.25;;;;;15.22;54.94;101976.81;2403128;28;45259;-83
2022/05/05 04:38:56;;;;;;;;;16.50;11.75;;;;;15.22;54.95;101977.69;2404261;28;46128;-83
2022/05/05 04:40:08;;;;;;;;;16.25;13.00;;;;;15.19;55.09;101975.13;2399081;28;44771;-83
2022/05/05 04:41:18;;;;;;;;;15.00;10.75;;;;;15.19;55.23;101977.78;2396660;28;48174;-84
2022/05/05 04:42:29;;;;;;;;;13.75;11.00;;;;;15.16;55.17;101975.25;2404326;28;44765;-84
2022/05/05 04:43:39;;;;;;;;;14.00;11.75;;;;;15.14;54.79;101972.63;2402123;28;45357;-83
2022/05/05 04:44:49;;;;;;;;;12.50;11.00;;;;;15.10;54.99;101984.25;2401964;28;45468;-84
2022/05/05 04:46:00;;;;;;;;;16.00;12.00;;;;;15.05;55.09;101980.88;2392500;28;47738;-83
2022/05/05 04:47:10;;;;;;;;;15.25;12.00;;;;;15.01;55.56;101985.44;2387547;28;45409;-82
2022/05/05 04:48:20;;;;;;;;;13.00;10.50;;;;;14.95;55.54;101982.97;2394094;28;46279;-82
2022/05/05 04:49:31;;;;;;;;;14.75;14.00;;;;;14.91;55.66;101983.97;2393013;28;45184;-82
2022/05/05 04:50:41;;;;;;;;;12.75;11.75;;;;;14.88;55.69;101989.38;2394241;28;45286;-82
2022/05/05 04:51:52;;;;;;;;;15.25;12.00;;;;;14.85;55.57;101988.56;2392585;28;45275;-82
2022/05/05 04:53:02;;;;;;;;;13.50;13.50;;;;;14.85;56.21;101983.25;2396036;28;48130;-83
2022/05/05 04:54:12;;;;;;;;;15.25;12.00;;;;;14.81;56.56;101978.94;2389710;28;45251;-83
2022/05/05 04:55:23;;;;;;;;;14.50;13.00;;;;;14.79;55.27;101986.03;2387930;28;46114;-82
2022/05/05 04:56:33;;;;;;;;;18.25;12.25;;;;;14.79;56.02;101996.63;2398061;28;45383;-83
2022/05/05 04:57:43;;;;;;;;;12.75;10.75;;;;;14.78;56.25;101994.91;2403337;28;45452;-84
2022/05/05 04:58:54;;;;;;;;;15.75;13.50;;;;;14.79;56.96;102001.09;2400225;28;45828;-86
2022/05/05 05:00:08;;;;;;;;;17.50;14.25;;;;;14.77;56.46;101997.59;2384451;28;47248;-86
2022/05/05 05:01:19;;;;;;;;;10.50;10.50;;;;;14.72;55.96;101993.31;2388247;28;45369;-83
2022/05/05 05:02:29;;;;;;;;;17.25;14.00;;;;;14.70;56.28;101997.78;2384462;28;47112;-83
2022/05/05 05:03:39;;;;;;;;;18.00;15.25;;;;;14.67;56.78;101992.59;2387461;28;45314;-83
2022/05/05 05:04:50;;;;;;;;;17.25;12.00;;;;;14.68;56.66;102004.91;2394193;28;45666;-83
2022/05/05 05:06:04;;;;;;;;;15.25;12.00;;;;;14.68;56.61;102004.03;2396434;28;44814;-82
2022/05/05 05:07:15;;;;;;;;;19.75;15.50;;;;;14.67;56.82;102004.97;2404147;28;45296;-82
2022/05/05 05:08:25;;;;;;;;;17.50;15.50;;;;;14.67;56.48;102000.53;2403805;28;44645;-83
2022/05/05 05:09:36;;;;;;;;;16.50;15.25;;;;;14.65;56.77;102005.00;2398315;28;46888;-82
2022/05/05 05:10:46;;;;;;;;;18.00;16.25;;;;;14.66;57.10;102006.75;2393599;28;45533;-82
2022/05/05 05:11:56;;;;;;;;;25.50;18.25;;;;;14.66;57.12;102006.75;2394426;28;46207;-82
2022/05/05 05:13:07;;;;;;;;;16.25;14.25;;;;;14.64;57.23;102008.56;2394803;28;44694;-82
2022/05/05 05:14:17;;;;;;;;;18.00;17.00;;;;;14.65;57.29;102012.94;2394878;28;45567;-82
2022/05/05 05:15:28;;;;;;;;;18.25;15.00;;;;;14.64;57.51;102008.56;2394224;28;46995;-82
2022/05/05 05:16:38;;;;;;;;;22.00;18.50;;;;;14.63;57.33;102012.13;2401236;28;46141;-82
2022/05/05 05:17:48;;;;;;;;;19.00;15.00;;;;;14.62;57.35;102016.53;2404176;28;45203;-82
2022/05/05 05:18:59;;;;;;;;;18.50;15.25;;;;;14.65;57.59;102020.00;2400217;28;46356;-82
2022/05/05 05:20:09;;;;;;;;;22.75;17.75;;;;;14.65;57.43;102017.34;2400608;28;44688;-83
2022/05/05 05:21:20;;;;;;;;;19.50;19.25;;;;;14.65;57.60;102017.34;2400147;28;45593;-82
2022/05/05 05:22:31;;;;;;;;;21.50;18.75;;;;;14.67;57.74;102023.50;2402934;28;44677;-82
2022/05/05 05:23:41;;;;;;;;;20.00;15.75;;;;;14.70;57.54;102023.38;2399370;28;46543;-82
2022/05/05 05:24:51;;;;;;;;;21.50;15.50;;;;;14.72;57.45;102025.06;2403787;28;45481;-82
2022/05/05 05:26:02;;;;;;;;;23.75;18.00;;;;;14.74;57.74;102025.03;2403484;28;45502;-82
2022/05/05 05:27:12;;;;;;;;;14.75;14.75;;;;;14.74;57.49;102022.41;2389587;28;45275;-82
2022/05/05 05:28:23;;;;;;;;;18.75;18.00;;;;;14.78;57.63;102028.44;2385214;28;47044;-82
2022/05/05 05:29:33;;;;;;;;;17.75;14.50;;;;;14.79;57.25;102027.56;2394094;28;45523;-82
2022/05/05 05:30:43;;;;;;;;;18.50;15.25;;;;;14.80;57.48;102023.97;2400214;28;45591;-84
2022/05/05 05:31:54;;;;;;;;;20.00;18.00;;;;;14.80;57.35;102029.25;2402697;28;45219;-81
2022/05/05 05:33:04;;;;;;;;;20.50;17.75;;;;;14.81;57.57;102023.94;2394000;28;48283;-82
2022/05/05 05:34:15;;;;;;;;;20.50;17.75;;;;;14.83;57.49;102024.75;2397744;28;45353;-80
2022/05/05 05:35:25;;;;;;;;;20.25;18.25;;;;;14.84;57.84;102021.19;2389335;28;47261;-82
2022/05/05 05:36:36;;;;;;;;;23.75;19.00;;;;;14.87;57.67;102030.84;2386490;28;45442;-83